createdAt,value
2018-12-05T00:00:06.043Z,11.50
2018-12-05T00:02:37.417Z,11.07
2018-12-05T00:05:05.719Z,14.53
2018-12-05T00:07:33.518Z,12.97
2018-12-05T00:10:01.359Z,10.20
2018-12-05T00:12:29.182Z,14.43
2018-12-05T00:14:56.843Z,14.53
2018-12-05T00:17:24.752Z,17.07
2018-12-05T00:19:52.473Z,17.70
2018-12-05T00:22:20.129Z,11.50
2018-12-05T00:24:47.926Z,16.47
2018-12-05T00:27:15.675Z,14.43
2018-12-05T00:29:43.548Z,17.07
2018-12-05T00:32:11.216Z,21.53
2018-12-05T00:34:38.901Z,34.87
2018-12-05T00:37:06.583Z,14.73
2018-12-05T00:39:34.279Z,13.80
2018-12-05T00:42:01.996Z,14.13
2018-12-05T00:44:29.650Z,13.77
2018-12-05T00:46:57.411Z,18.80
2018-12-05T00:49:25.051Z,13.20
2018-12-05T00:51:52.810Z,16.63
2018-12-05T00:54:20.826Z,19.70
2018-12-05T00:56:48.473Z,14.00
2018-12-05T00:59:16.164Z,13.07
2018-12-05T01:01:43.907Z,14.83
2018-12-05T01:04:11.603Z,12.73
2018-12-05T01:06:41.579Z,13.57
2018-12-05T01:09:11.937Z,10.63
2018-12-05T01:11:41.386Z,15.30
2018-12-05T01:14:09.265Z,14.97
2018-12-05T01:16:37.043Z,12.30
2018-12-05T01:19:07.559Z,12.73
2018-12-05T01:21:35.266Z,13.10
2018-12-05T01:24:03.070Z,10.90
2018-12-05T01:26:30.940Z,12.30
2018-12-05T01:28:58.597Z,11.17
2018-12-05T01:31:26.299Z,12.43
2018-12-05T01:33:53.988Z,15.80
2018-12-05T01:36:21.722Z,11.63
2018-12-05T01:38:49.587Z,15.60
2018-12-05T01:41:17.253Z,11.43
2018-12-05T01:43:47.936Z,11.83
2018-12-05T01:46:15.771Z,13.37
2018-12-05T01:48:43.618Z,13.80
2018-12-05T01:51:11.314Z,14.60
2018-12-05T01:53:39.026Z,14.70
2018-12-05T01:58:46.644Z,15.17
2018-12-05T02:01:16.008Z,15.07
2018-12-05T02:03:44.699Z,15.77
2018-12-05T02:06:12.846Z,14.87
2018-12-05T02:08:40.601Z,12.97
2018-12-05T02:11:08.298Z,14.37
2018-12-05T02:13:36.002Z,13.93
2018-12-05T02:16:03.661Z,12.23
2018-12-05T02:18:31.328Z,14.63
2018-12-05T02:20:59.090Z,13.27
2018-12-05T02:23:26.800Z,11.57
2018-12-05T02:25:54.435Z,15.63
2018-12-05T02:28:22.159Z,16.20
2018-12-05T02:30:49.828Z,12.40
2018-12-05T02:33:17.507Z,13.30
2018-12-05T02:35:45.307Z,13.70
2018-12-05T02:38:12.946Z,20.00
2018-12-05T02:40:40.673Z,14.10
2018-12-05T02:43:08.354Z,14.50
2018-12-05T02:45:36.059Z,11.30
2018-12-05T02:48:03.769Z,11.20
2018-12-05T02:50:31.821Z,12.23
2018-12-05T02:52:59.501Z,11.33
2018-12-05T02:55:27.164Z,10.40
2018-12-05T02:57:55.028Z,14.80
2018-12-05T03:00:22.781Z,12.93
2018-12-05T03:02:50.991Z,13.87
2018-12-05T03:05:18.691Z,11.00
2018-12-05T03:07:46.385Z,13.80
2018-12-05T03:10:14.217Z,16.97
2018-12-05T03:12:41.919Z,14.80
2018-12-05T03:15:09.603Z,13.60
2018-12-05T03:17:37.318Z,10.20
2018-12-05T03:20:05.425Z,11.37
2018-12-05T03:22:33.442Z,15.07
2018-12-05T03:25:01.204Z,14.23
2018-12-05T03:27:28.869Z,15.30
2018-12-05T03:29:56.573Z,13.63
2018-12-05T03:32:26.515Z,16.70
2018-12-05T03:34:54.181Z,12.33
2018-12-05T03:37:21.910Z,11.73
2018-12-05T03:39:49.575Z,14.73
2018-12-05T03:42:17.231Z,15.70
2018-12-05T03:44:46.016Z,15.97
2018-12-05T03:47:13.701Z,23.33
2018-12-05T03:49:47.924Z,17.87
2018-12-05T03:52:15.580Z,12.00
2018-12-05T03:54:43.228Z,13.83
2018-12-05T03:57:10.874Z,12.83
2018-12-05T03:59:38.702Z,12.30
2018-12-05T04:02:06.415Z,12.07
2018-12-05T04:04:34.114Z,19.80
2018-12-05T04:07:02.037Z,18.30
2018-12-05T04:09:29.703Z,17.93
2018-12-05T04:11:57.373Z,13.10
2018-12-05T04:14:25.053Z,14.03
2018-12-05T04:16:52.770Z,18.10
2018-12-05T04:19:20.424Z,9.90
2018-12-05T04:21:48.078Z,10.23
2018-12-05T04:24:15.806Z,19.77
2018-12-05T04:26:43.496Z,10.40
2018-12-05T04:29:11.203Z,15.83
2018-12-05T04:31:38.834Z,17.63
2018-12-05T04:34:06.526Z,14.50
2018-12-05T04:36:34.188Z,14.10
2018-12-05T04:39:01.989Z,12.83
2018-12-05T04:41:31.750Z,11.60
2018-12-05T04:43:59.464Z,15.60
2018-12-05T04:46:30.417Z,14.97
2018-12-05T04:48:58.171Z,15.30
2018-12-05T04:51:25.832Z,12.43
2018-12-05T04:53:53.487Z,9.33
2018-12-05T04:56:21.162Z,13.27
2018-12-05T04:58:48.881Z,18.40
2018-12-05T05:01:16.616Z,10.80
2018-12-05T05:03:44.456Z,10.87
2018-12-05T05:06:12.130Z,13.90
2018-12-05T05:08:42.931Z,14.10
2018-12-05T05:11:10.601Z,11.80
2018-12-05T05:13:38.282Z,14.37
2018-12-05T05:16:06.276Z,18.33
2018-12-05T05:18:33.968Z,16.20
2018-12-05T05:21:01.870Z,19.57
2018-12-05T05:23:29.618Z,11.40
2018-12-05T05:25:57.289Z,12.37
2018-12-05T05:28:24.976Z,15.03
2018-12-05T05:30:52.619Z,14.73
2018-12-05T05:33:20.391Z,15.10
2018-12-05T05:35:48.513Z,10.00
2018-12-05T05:38:16.182Z,12.13
2018-12-05T05:40:43.901Z,13.27
2018-12-05T05:43:11.563Z,10.87
2018-12-05T05:45:39.231Z,13.20
2018-12-05T05:48:06.938Z,12.67
2018-12-05T05:50:34.639Z,19.17
2018-12-05T05:53:02.320Z,11.80
2018-12-05T05:55:30.333Z,12.60
2018-12-05T05:57:58.911Z,11.87
2018-12-05T06:00:26.605Z,13.80
2018-12-05T06:02:54.728Z,10.80
2018-12-05T06:05:22.395Z,16.30
2018-12-05T06:07:50.083Z,9.80
2018-12-05T06:10:17.742Z,16.07
2018-12-05T06:12:45.407Z,14.63
2018-12-05T06:15:13.121Z,11.20
2018-12-05T06:17:40.790Z,25.87
2018-12-05T06:20:08.598Z,14.83
2018-12-05T06:22:36.266Z,7.90
2018-12-05T06:25:04.895Z,11.83
2018-12-05T06:27:32.579Z,13.43
2018-12-05T06:30:00.253Z,11.53
2018-12-05T06:32:27.938Z,15.37
2018-12-05T06:34:55.615Z,15.90
2018-12-05T06:37:23.278Z,13.83
2018-12-05T06:39:50.959Z,12.23
2018-12-05T06:42:18.590Z,21.27
2018-12-05T06:44:46.316Z,14.53
2018-12-05T06:47:14.512Z,13.90
2018-12-05T06:49:42.184Z,13.60
2018-12-05T06:52:09.921Z,12.73
2018-12-05T06:54:37.606Z,17.17
2018-12-05T06:57:05.383Z,12.37
2018-12-05T06:59:33.115Z,14.23
2018-12-05T07:02:00.793Z,11.80
2018-12-05T07:04:30.263Z,13.53
2018-12-05T07:06:57.915Z,15.67
2018-12-05T07:09:25.555Z,12.93
2018-12-05T07:11:53.375Z,15.47
2018-12-05T07:14:21.175Z,16.53
2018-12-05T07:16:48.853Z,19.73
2018-12-05T07:19:16.614Z,22.00
2018-12-05T07:21:44.242Z,20.67
2018-12-05T07:24:11.882Z,23.87
2018-12-05T07:26:39.578Z,14.63
2018-12-05T07:29:07.276Z,44.27
2018-12-05T07:31:34.938Z,18.30
2018-12-05T07:34:03.155Z,17.03
2018-12-05T07:36:30.805Z,18.43
2018-12-05T07:38:58.532Z,15.73
2018-12-05T07:41:26.254Z,22.47
2018-12-05T07:43:53.954Z,17.70
2018-12-05T07:46:21.821Z,21.17
2018-12-05T07:48:49.551Z,23.70
2018-12-05T07:51:17.333Z,26.13
2018-12-05T07:53:44.999Z,20.33
2018-12-05T07:56:12.786Z,22.67
2018-12-05T07:58:40.469Z,23.50
2018-12-05T08:01:08.274Z,27.23
2018-12-05T08:03:35.958Z,20.40
2018-12-05T08:06:03.915Z,28.90
2018-12-05T08:08:31.707Z,19.60
2018-12-05T08:10:59.430Z,23.50
2018-12-05T08:13:27.308Z,18.23
2018-12-05T08:15:55.006Z,20.57
2018-12-05T08:18:22.851Z,20.40
2018-12-05T08:20:50.570Z,23.20
2018-12-05T08:23:18.318Z,23.63
2018-12-05T08:25:45.984Z,18.40
2018-12-05T08:28:13.774Z,23.57
2018-12-05T08:30:41.472Z,22.60
2018-12-05T08:33:09.258Z,25.63
2018-12-05T08:35:36.950Z,25.70
2018-12-05T08:38:04.674Z,26.13
2018-12-05T08:40:32.410Z,19.23
2018-12-05T08:43:00.106Z,25.90
2018-12-05T08:45:27.795Z,18.43
2018-12-05T08:47:55.672Z,22.60
2018-12-05T08:50:23.891Z,21.27
2018-12-05T08:52:51.775Z,21.87
2018-12-05T08:55:19.638Z,24.10
2018-12-05T08:57:47.459Z,22.43
2018-12-05T09:00:15.309Z,25.23
2018-12-05T09:02:43.172Z,20.73
2018-12-05T09:05:10.878Z,21.27
2018-12-05T09:07:38.680Z,18.00
2018-12-05T09:10:06.553Z,23.50
2018-12-05T09:12:34.280Z,14.87
2018-12-05T09:15:02.267Z,16.57
2018-12-05T09:17:31.207Z,17.77
2018-12-05T09:19:58.907Z,22.10
2018-12-05T09:22:26.844Z,20.00
2018-12-05T09:24:54.907Z,19.00
2018-12-05T09:27:25.556Z,17.73
2018-12-05T09:29:53.525Z,21.70
2018-12-05T09:32:21.395Z,14.10
2018-12-05T09:34:49.179Z,14.00
2018-12-05T09:37:16.839Z,24.90
2018-12-05T09:39:44.666Z,17.47
2018-12-05T09:42:12.367Z,22.30
2018-12-05T09:44:40.064Z,23.33
2018-12-05T09:47:07.739Z,19.93
2018-12-05T09:49:35.387Z,19.73
2018-12-05T09:52:03.142Z,23.50
2018-12-05T09:54:30.989Z,25.20
2018-12-05T09:56:58.649Z,19.97
2018-12-05T09:59:26.368Z,19.87
2018-12-05T10:01:54.071Z,22.37
2018-12-05T10:04:21.952Z,19.13
2018-12-05T10:06:49.645Z,20.17
2018-12-05T10:09:17.312Z,21.33
2018-12-05T10:11:45.039Z,19.10
2018-12-05T10:14:12.718Z,23.50
2018-12-05T10:16:40.403Z,23.70
2018-12-05T10:19:08.082Z,17.60
2018-12-05T10:21:35.746Z,21.17
2018-12-05T10:24:03.690Z,19.50
2018-12-05T10:26:31.705Z,22.30
2018-12-05T10:28:59.429Z,22.03
2018-12-05T10:31:27.094Z,20.83
2018-12-05T10:33:54.753Z,25.90
2018-12-05T10:36:22.510Z,21.73
2018-12-05T10:38:51.387Z,20.70
2018-12-05T10:41:19.321Z,22.10
2018-12-05T10:43:47.140Z,20.83
2018-12-05T10:46:16.166Z,20.50
2018-12-05T10:48:44.011Z,23.67
2018-12-05T10:51:11.767Z,23.30
2018-12-05T10:53:39.465Z,23.07
2018-12-05T10:56:07.188Z,21.60
2018-12-05T10:58:35.146Z,21.87
2018-12-05T11:01:08.578Z,21.47
2018-12-05T11:03:36.236Z,21.33
2018-12-05T11:06:10.541Z,20.50
2018-12-05T11:08:43.788Z,17.07
2018-12-05T11:11:17.032Z,19.97
2018-12-05T11:13:50.282Z,21.53
2018-12-05T11:16:23.524Z,25.40
2018-12-05T11:18:57.003Z,17.73
2018-12-05T11:21:30.538Z,17.70
2018-12-05T11:24:08.468Z,22.50
2018-12-05T11:26:38.234Z,18.10
2018-12-05T11:29:05.957Z,22.40
2018-12-05T11:31:33.644Z,19.73
2018-12-05T11:34:01.536Z,17.10
2018-12-05T11:36:29.380Z,18.00
2018-12-05T11:38:57.089Z,23.07
2018-12-05T11:41:24.761Z,21.20
2018-12-05T11:43:52.430Z,20.53
2018-12-05T11:46:20.185Z,20.33
2018-12-05T11:48:47.866Z,18.67
2018-12-05T11:51:15.696Z,19.90
2018-12-05T11:53:43.439Z,21.33
2018-12-05T11:56:11.146Z,19.47
2018-12-05T11:58:39.162Z,19.07
2018-12-05T12:01:06.993Z,20.20
2018-12-05T12:03:34.710Z,17.83
2018-12-05T12:06:04.398Z,22.37
2018-12-05T12:08:32.223Z,23.27
2018-12-05T12:11:02.843Z,23.67
2018-12-05T12:13:30.546Z,23.27
2018-12-05T12:15:58.403Z,23.83
2018-12-05T12:18:26.194Z,19.97
2018-12-05T12:20:53.856Z,23.33
2018-12-05T12:23:21.643Z,18.80
2018-12-05T12:25:49.300Z,22.27
2018-12-05T12:28:16.952Z,18.27
2018-12-05T12:30:44.923Z,18.90
2018-12-05T12:33:12.553Z,16.80
2018-12-05T12:35:40.354Z,20.53
2018-12-05T12:38:08.037Z,16.90
2018-12-05T12:40:35.728Z,16.73
2018-12-05T12:43:03.528Z,15.73
2018-12-05T12:45:31.294Z,20.53
2018-12-05T12:47:59.059Z,18.33
2018-12-05T12:50:26.864Z,19.67
2018-12-05T12:52:54.539Z,13.20
2018-12-05T12:55:23.320Z,24.00
2018-12-05T12:57:51.103Z,21.43
2018-12-05T13:00:19.275Z,19.23
2018-12-05T13:02:47.065Z,16.93
2018-12-05T13:05:14.806Z,15.60
2018-12-05T13:07:42.528Z,14.20
2018-12-05T13:10:10.476Z,20.90
2018-12-05T13:12:38.374Z,16.27
2018-12-05T13:15:06.420Z,19.40
2018-12-05T13:17:34.214Z,16.23
2018-12-05T13:20:01.958Z,13.43
2018-12-05T13:22:29.861Z,16.63
2018-12-05T13:24:57.591Z,14.57
2018-12-05T13:27:25.345Z,15.43
2018-12-05T13:29:53.189Z,15.30
2018-12-05T13:32:20.913Z,20.67
2018-12-05T13:34:48.632Z,12.17
2018-12-05T13:37:16.507Z,16.03
2018-12-05T13:39:44.428Z,16.70
2018-12-05T13:42:12.307Z,15.33
2018-12-05T13:44:40.109Z,13.60
2018-12-05T13:47:16.073Z,14.43
2018-12-05T13:49:43.825Z,12.53
2018-12-05T13:52:11.518Z,15.70
2018-12-05T13:54:39.179Z,12.70
2018-12-05T13:57:06.884Z,13.30
2018-12-05T13:59:34.582Z,11.00
2018-12-05T14:02:02.363Z,11.37
2018-12-05T14:04:30.062Z,13.47
2018-12-05T14:06:57.697Z,15.17
2018-12-05T14:09:25.407Z,13.17
2018-12-05T14:11:53.182Z,11.90
2018-12-05T14:14:21.004Z,13.30
2018-12-05T14:16:48.738Z,14.23
2018-12-05T14:19:16.459Z,15.80
2018-12-05T14:21:44.163Z,13.17
2018-12-05T14:24:12.014Z,12.20
2018-12-05T14:26:39.747Z,12.30
2018-12-05T14:29:07.478Z,17.27
2018-12-05T14:31:35.775Z,14.40
2018-12-05T14:34:04.510Z,12.67
2018-12-05T14:36:32.587Z,17.10
2018-12-05T14:39:00.607Z,17.87
2018-12-05T14:41:28.511Z,13.93
2018-12-05T14:43:56.238Z,14.27
2018-12-05T14:46:23.904Z,11.87
2018-12-05T14:48:51.697Z,13.53
2018-12-05T14:51:19.415Z,13.07
2018-12-05T14:53:47.078Z,14.30
2018-12-05T14:56:14.780Z,10.50
2018-12-05T14:58:42.490Z,15.37
2018-12-05T15:01:10.149Z,15.83
2018-12-05T15:03:37.924Z,13.47
2018-12-05T15:06:05.701Z,15.50
2018-12-05T15:08:33.425Z,16.23
2018-12-05T15:11:01.144Z,23.50
2018-12-05T15:13:28.882Z,19.10
2018-12-05T15:15:56.708Z,15.27
2018-12-05T15:18:24.402Z,15.87
2018-12-05T15:20:52.084Z,14.97
2018-12-05T15:23:19.911Z,16.10
2018-12-05T15:25:47.642Z,18.87
2018-12-05T15:28:15.344Z,18.43
2018-12-05T15:30:43.105Z,20.47
2018-12-05T15:33:11.072Z,20.40
2018-12-05T15:35:38.932Z,26.10
2018-12-05T15:38:07.047Z,21.07
2018-12-05T15:40:34.777Z,20.43
2018-12-05T15:43:02.652Z,22.13
2018-12-05T15:45:30.476Z,23.70
2018-12-05T15:47:58.285Z,29.40
2018-12-05T15:50:26.061Z,21.10
2018-12-05T15:52:53.743Z,20.77
2018-12-05T15:55:21.544Z,32.60
2018-12-05T15:57:49.272Z,21.10
2018-12-05T16:00:17.035Z,18.30
2018-12-05T16:02:44.731Z,20.43
2018-12-05T16:05:12.604Z,16.40
2018-12-05T16:07:40.526Z,22.60
2018-12-05T16:10:08.642Z,28.00
2018-12-05T16:12:36.475Z,22.03
2018-12-05T16:15:04.428Z,27.47
2018-12-05T16:17:32.343Z,22.23
2018-12-05T16:20:02.026Z,22.60
2018-12-05T16:22:29.904Z,19.70
2018-12-05T16:24:57.854Z,21.40
2018-12-05T16:27:25.614Z,22.77
2018-12-05T16:29:53.357Z,19.33
2018-12-05T16:32:21.216Z,22.67
2018-12-05T16:34:49.991Z,19.30
2018-12-05T16:37:17.727Z,22.23
2018-12-05T16:39:45.531Z,25.97
2018-12-05T16:42:13.250Z,22.83
2018-12-05T16:44:41.054Z,21.97
2018-12-05T16:47:08.904Z,16.63
2018-12-05T16:49:36.633Z,20.60
2018-12-05T16:52:04.401Z,20.53
2018-12-05T16:54:32.232Z,18.37
2018-12-05T16:57:03.261Z,20.53
2018-12-05T16:59:31.596Z,27.13
2018-12-05T17:01:59.344Z,20.87
2018-12-05T17:04:27.539Z,20.47
2018-12-05T17:06:55.284Z,17.27
2018-12-05T17:09:26.366Z,20.37
2018-12-05T17:11:52.943Z,17.47
2018-12-05T17:14:20.745Z,16.07
2018-12-05T17:16:48.454Z,19.30
2018-12-05T17:19:16.155Z,21.30
2018-12-05T17:21:43.939Z,14.93
2018-12-05T17:24:11.683Z,16.93
2018-12-05T17:26:39.419Z,15.87
2018-12-05T17:29:08.598Z,18.40
2018-12-05T17:31:36.282Z,20.57
2018-12-05T17:34:04.113Z,23.43
2018-12-05T17:36:31.839Z,20.53
2018-12-05T17:38:59.551Z,21.00
2018-12-05T17:41:27.252Z,18.23
2018-12-05T17:43:54.943Z,18.80
2018-12-05T17:46:22.633Z,17.90
2018-12-05T17:48:50.385Z,25.13
2018-12-05T17:51:18.095Z,17.40
2018-12-05T17:53:46.998Z,20.30
2018-12-05T17:56:14.878Z,18.90
2018-12-05T17:58:42.587Z,19.17
2018-12-05T18:01:10.332Z,18.67
2018-12-05T18:03:38.083Z,19.37
2018-12-05T18:06:05.899Z,17.70
2018-12-05T18:08:33.644Z,17.43
2018-12-05T18:11:01.330Z,13.60
2018-12-05T18:13:29.003Z,15.40
2018-12-05T18:15:56.925Z,18.03
2018-12-05T18:18:24.771Z,13.90
2018-12-05T18:20:52.551Z,15.87
2018-12-05T18:23:20.363Z,13.33
2018-12-05T18:25:48.211Z,18.40
2018-12-05T18:28:15.896Z,20.23
2018-12-05T18:30:43.598Z,15.60
2018-12-05T18:33:11.350Z,16.47
2018-12-05T18:35:39.196Z,15.63
2018-12-05T18:38:06.888Z,16.80
2018-12-05T18:40:34.656Z,17.67
2018-12-05T18:43:02.492Z,14.47
2018-12-05T18:45:31.376Z,19.63
2018-12-05T18:47:59.336Z,15.70
2018-12-05T18:50:27.226Z,15.90
2018-12-05T18:52:54.983Z,15.40
2018-12-05T18:55:22.909Z,16.37
2018-12-05T18:57:50.672Z,15.93
2018-12-05T19:00:18.458Z,13.00
2018-12-05T19:02:46.275Z,15.97
2018-12-05T19:05:14.060Z,13.43
2018-12-05T19:07:41.807Z,13.17
2018-12-05T19:10:09.640Z,20.60
2018-12-05T19:12:37.380Z,16.30
2018-12-05T19:15:06.050Z,14.87
2018-12-05T19:17:33.814Z,18.83
2018-12-05T19:20:01.805Z,21.23
2018-12-05T19:22:29.752Z,17.20
2018-12-05T19:24:57.535Z,14.80
2018-12-05T19:27:25.452Z,16.20
2018-12-05T19:29:53.187Z,14.50
2018-12-05T19:32:21.154Z,13.47
2018-12-05T19:34:48.895Z,13.57
2018-12-05T19:37:16.831Z,18.53
2018-12-05T19:39:44.811Z,14.10
2018-12-05T19:42:12.659Z,13.80
2018-12-05T19:44:40.591Z,17.20
2018-12-05T19:47:08.435Z,14.53
2018-12-05T19:49:36.365Z,15.33
2018-12-05T19:52:04.221Z,16.40
2018-12-05T19:54:32.048Z,16.80
2018-12-05T19:56:59.899Z,11.43
2018-12-05T19:59:27.865Z,13.73
2018-12-05T20:01:55.686Z,13.97
2018-12-05T20:04:23.524Z,13.97
2018-12-05T20:06:51.370Z,14.60
2018-12-05T20:09:19.478Z,13.33
2018-12-05T20:11:47.480Z,15.17
2018-12-05T20:14:20.928Z,18.77
2018-12-05T20:16:48.706Z,14.23
2018-12-05T20:19:17.231Z,15.50
2018-12-05T20:21:45.135Z,12.07
2018-12-05T20:24:13.046Z,13.27
2018-12-05T20:26:40.885Z,15.90
2018-12-05T20:29:08.703Z,14.87
2018-12-05T20:31:36.645Z,12.10
2018-12-05T20:34:04.471Z,13.40
2018-12-05T20:36:32.394Z,14.00
2018-12-05T20:39:00.216Z,13.50
2018-12-05T20:41:32.409Z,18.20
2018-12-05T20:43:57.873Z,25.63
2018-12-05T20:46:25.572Z,10.67
2018-12-05T20:48:53.502Z,13.03
2018-12-05T20:51:21.414Z,11.57
2018-12-05T20:53:49.264Z,13.50
2018-12-05T20:56:17.108Z,13.57
2018-12-05T20:58:44.864Z,11.20
2018-12-05T21:01:12.747Z,13.23
2018-12-05T21:03:41.291Z,9.73
2018-12-05T21:06:09.151Z,9.77
2018-12-05T21:08:37.187Z,9.87
2018-12-05T21:11:05.112Z,9.90
2018-12-05T21:13:33.660Z,9.23
2018-12-05T21:16:01.561Z,11.30
2018-12-05T21:18:29.383Z,10.50
2018-12-05T21:20:57.149Z,12.00
2018-12-05T21:23:25.068Z,9.20
2018-12-05T21:25:52.901Z,11.43
2018-12-05T21:28:31.003Z,11.93
2018-12-05T21:30:58.798Z,12.83
2018-12-05T21:33:26.869Z,12.57
2018-12-05T21:35:54.604Z,7.60
2018-12-05T21:38:22.769Z,8.33
2018-12-05T21:40:50.490Z,14.60
2018-12-05T21:43:18.249Z,7.67
2018-12-05T21:45:46.008Z,10.73
2018-12-05T21:48:13.722Z,10.43
2018-12-05T21:50:41.481Z,9.87
2018-12-05T21:53:09.207Z,10.17
2018-12-05T21:55:36.963Z,7.53
2018-12-05T21:58:04.683Z,7.07
2018-12-05T22:00:33.229Z,6.93
2018-12-05T22:03:00.998Z,9.00
2018-12-05T22:05:28.900Z,10.00
2018-12-05T22:07:56.631Z,10.43
2018-12-05T22:10:24.359Z,9.60
2018-12-05T22:12:52.158Z,9.93
2018-12-05T22:15:19.957Z,9.17
2018-12-05T22:17:47.718Z,10.17
2018-12-05T22:20:15.498Z,7.90
2018-12-05T22:22:43.199Z,7.23
2018-12-05T22:25:10.907Z,7.67
2018-12-05T22:27:38.590Z,14.93
2018-12-05T22:30:07.561Z,7.13
2018-12-05T22:32:35.766Z,6.03
2018-12-05T22:35:04.030Z,10.00
2018-12-05T22:37:31.895Z,8.50
2018-12-05T22:39:59.678Z,7.20
2018-12-05T22:42:27.574Z,8.53
2018-12-05T22:44:55.275Z,7.80
2018-12-05T22:47:23.067Z,8.27
2018-12-05T22:49:50.823Z,8.10
2018-12-05T22:52:18.620Z,10.23
2018-12-05T22:54:46.522Z,8.00
2018-12-05T22:57:15.051Z,7.83
2018-12-05T22:59:42.858Z,8.90
2018-12-05T23:02:10.619Z,7.93
2018-12-05T23:04:38.457Z,8.00
2018-12-05T23:07:06.326Z,9.33
2018-12-05T23:09:34.102Z,7.77
2018-12-05T23:12:01.803Z,6.93
2018-12-05T23:14:29.729Z,8.60
2018-12-05T23:16:57.455Z,7.13
2018-12-05T23:19:25.168Z,7.40
2018-12-05T23:21:52.837Z,8.03
2018-12-05T23:24:20.745Z,9.53
2018-12-05T23:26:48.717Z,7.87
2018-12-05T23:29:16.494Z,6.27
2018-12-05T23:31:44.159Z,6.70
2018-12-05T23:34:14.063Z,7.73
2018-12-05T23:36:41.767Z,7.07
2018-12-05T23:39:09.465Z,6.93
2018-12-05T23:41:37.183Z,7.33
2018-12-05T23:44:04.843Z,8.50
2018-12-05T23:46:32.582Z,8.63
2018-12-05T23:49:00.230Z,8.50
2018-12-05T23:51:27.927Z,5.97
2018-12-05T23:53:55.619Z,8.07
2018-12-05T23:56:23.508Z,8.90
2018-12-05T23:58:51.227Z,7.93
